createdAt,value
2022-11-16T00:03:48.476Z,5.35
2022-11-16T00:09:22.229Z,5.05
2022-11-16T00:14:25.961Z,4.00
2022-11-16T00:19:28.547Z,6.20
2022-11-16T00:24:30.278Z,5.22
2022-11-16T00:29:31.927Z,4.70
2022-11-16T00:34:33.659Z,6.95
2022-11-16T00:39:35.536Z,12.73
2022-11-16T00:44:37.694Z,6.55
2022-11-16T00:49:39.388Z,7.55
2022-11-16T00:54:41.092Z,5.20
2022-11-16T00:59:43.184Z,3.65
2022-11-16T01:04:45.272Z,3.53
2022-11-16T01:09:46.940Z,3.13
2022-11-16T01:14:48.661Z,4.03
2022-11-16T01:19:50.782Z,3.95
2022-11-16T01:24:52.558Z,4.55
2022-11-16T01:29:54.309Z,4.50
2022-11-16T01:34:56.027Z,4.05
2022-11-16T01:39:57.820Z,5.43
2022-11-16T01:45:21.556Z,5.75
2022-11-16T01:50:23.412Z,5.32
2022-11-16T01:55:28.272Z,4.82
2022-11-16T02:00:30.470Z,5.90
2022-11-16T02:05:50.777Z,5.97
2022-11-16T02:11:45.597Z,4.97
2022-11-16T02:16:53.458Z,4.95
2022-11-16T02:22:16.762Z,4.75
2022-11-16T02:27:28.446Z,3.08
2022-11-16T02:32:32.869Z,8.80
2022-11-16T02:37:39.173Z,7.47
2022-11-16T02:42:46.163Z,6.78
2022-11-16T02:47:50.810Z,6.35
2022-11-16T02:52:52.528Z,6.55
2022-11-16T02:58:06.912Z,6.40
2022-11-16T03:03:26.164Z,5.80
2022-11-16T03:08:28.267Z,3.70
2022-11-16T03:13:34.376Z,2.78
2022-11-16T03:18:38.580Z,2.85
2022-11-16T03:23:40.846Z,2.55
2022-11-16T03:28:51.728Z,2.00
2022-11-16T03:33:57.164Z,2.30
2022-11-16T03:39:05.618Z,2.95
2022-11-16T03:44:10.518Z,4.30
2022-11-16T03:49:12.601Z,4.97
2022-11-16T03:54:14.669Z,5.47
2022-11-16T03:59:16.359Z,6.22
2022-11-16T04:04:36.455Z,6.30
2022-11-16T04:09:56.662Z,5.20
2022-11-16T04:15:16.887Z,4.35
2022-11-16T04:20:37.305Z,3.08
2022-11-16T04:25:41.745Z,4.07
2022-11-16T04:31:14.008Z,4.50
2022-11-16T04:36:34.581Z,4.23
2022-11-16T04:41:55.103Z,3.70
2022-11-16T04:47:08.921Z,3.50
2022-11-16T04:52:10.842Z,3.40
2022-11-16T04:57:12.923Z,4.90
2022-11-16T05:02:15.252Z,4.53
2022-11-16T05:07:17.065Z,4.60
2022-11-16T05:12:19.137Z,3.50
2022-11-16T05:17:21.615Z,4.45
2022-11-16T05:22:24.123Z,4.47
2022-11-16T05:27:28.094Z,4.03
2022-11-16T05:32:29.870Z,4.18
2022-11-16T05:37:31.622Z,5.43
2022-11-16T05:42:33.343Z,3.47
2022-11-16T05:47:35.473Z,4.00
2022-11-16T05:52:37.583Z,4.15
2022-11-16T05:57:39.781Z,3.30
2022-11-16T06:02:41.575Z,3.85
2022-11-16T06:07:43.663Z,7.30
2022-11-16T06:12:45.757Z,9.75
2022-11-16T06:17:47.480Z,5.25
2022-11-16T06:22:49.142Z,4.35
2022-11-16T06:27:51.033Z,3.08
2022-11-16T06:32:52.803Z,2.95
2022-11-16T06:37:55.380Z,2.10
2022-11-16T06:42:57.390Z,5.40
2022-11-16T06:47:59.103Z,2.30
2022-11-16T06:53:01.174Z,2.40
2022-11-16T06:58:02.935Z,2.10
2022-11-16T07:03:04.981Z,2.53
2022-11-16T07:08:09.500Z,2.42
2022-11-16T07:13:11.178Z,2.70
2022-11-16T07:18:12.870Z,10.15
2022-11-16T07:23:14.560Z,9.25
2022-11-16T07:28:16.786Z,7.80
2022-11-16T07:33:18.470Z,5.13
2022-11-16T07:38:20.108Z,3.45
2022-11-16T07:43:21.730Z,7.80
2022-11-16T07:48:23.418Z,9.18
2022-11-16T07:53:25.502Z,15.10
2022-11-16T07:58:33.520Z,8.00
2022-11-16T08:03:36.238Z,5.32
2022-11-16T08:08:37.861Z,14.15
2022-11-16T08:13:41.113Z,11.10
2022-11-16T08:18:43.708Z,18.55
2022-11-16T08:23:46.037Z,11.68
2022-11-16T08:28:51.030Z,7.45
2022-11-16T08:33:52.788Z,7.53
2022-11-16T08:38:54.591Z,10.00
2022-11-16T08:43:57.084Z,9.88
2022-11-16T08:48:59.098Z,7.15
2022-11-16T08:54:01.601Z,6.63
2022-11-16T08:59:03.971Z,4.35
2022-11-16T09:04:06.021Z,3.20
2022-11-16T09:09:07.676Z,2.65
2022-11-16T09:14:09.481Z,2.08
2022-11-16T09:19:11.263Z,2.42
2022-11-16T09:24:13.074Z,2.13
2022-11-16T09:29:15.335Z,2.53
2022-11-16T09:34:17.477Z,2.80
2022-11-16T09:39:30.573Z,2.45
2022-11-16T09:44:43.960Z,1.95
2022-11-16T09:50:03.544Z,2.17
2022-11-16T09:55:32.076Z,1.85
2022-11-16T10:00:36.307Z,1.50
2022-11-16T10:05:46.505Z,1.50
2022-11-16T10:11:02.542Z,1.27
2022-11-16T10:16:23.863Z,1.40
2022-11-16T10:21:52.688Z,1.60
2022-11-16T10:27:09.708Z,0.98
2022-11-16T10:32:29.304Z,1.20
2022-11-16T10:37:36.512Z,1.30
2022-11-16T10:42:39.314Z,1.10
2022-11-16T10:47:57.076Z,1.42
2022-11-16T10:53:00.650Z,1.48
2022-11-16T10:58:05.163Z,6.07
2022-11-16T11:03:07.385Z,4.60
2022-11-16T11:08:12.499Z,2.17
2022-11-16T11:13:14.125Z,1.92
2022-11-16T11:18:15.708Z,5.45
2022-11-16T11:23:23.677Z,2.05
2022-11-16T11:28:31.851Z,1.92
2022-11-16T11:33:39.131Z,2.08
2022-11-16T11:39:06.615Z,1.55
2022-11-16T11:44:17.632Z,1.33
2022-11-16T11:49:33.224Z,1.60
2022-11-16T11:54:45.653Z,1.00
2022-11-16T11:59:49.964Z,1.20
2022-11-16T12:05:28.163Z,1.40
2022-11-16T12:10:48.699Z,1.75
2022-11-16T12:15:57.715Z,1.30
2022-11-16T12:21:05.318Z,0.80
2022-11-16T12:26:19.529Z,0.90
2022-11-16T12:31:35.975Z,1.02
2022-11-16T12:36:53.006Z,1.50
2022-11-16T12:42:32.795Z,1.00
2022-11-16T12:47:54.820Z,1.30
2022-11-16T12:53:14.845Z,1.42
2022-11-16T12:58:22.176Z,4.80
2022-11-16T13:03:33.547Z,1.80
2022-11-16T13:08:38.861Z,2.90
2022-11-16T13:13:45.708Z,2.15
2022-11-16T13:18:51.421Z,6.97
2022-11-16T13:24:16.381Z,3.90
2022-11-16T13:29:46.988Z,2.08
2022-11-16T13:34:49.912Z,1.60
2022-11-16T13:40:31.861Z,1.33
2022-11-16T13:46:07.140Z,2.22
2022-11-16T13:51:20.896Z,1.48
2022-11-16T13:56:28.650Z,1.58
2022-11-16T14:02:01.516Z,1.60
2022-11-16T14:07:03.334Z,2.10
2022-11-16T14:12:39.020Z,5.82
2022-11-16T14:18:16.171Z,4.10
2022-11-16T14:23:42.425Z,3.85
2022-11-16T14:29:32.143Z,2.28
2022-11-16T14:34:41.551Z,28.65
2022-11-16T14:39:43.966Z,10.88
2022-11-16T14:44:46.498Z,6.93
2022-11-16T14:49:48.672Z,3.03
2022-11-16T14:54:55.107Z,3.20
2022-11-16T15:00:23.015Z,5.40
2022-11-16T15:05:30.297Z,1.60
2022-11-16T15:10:31.981Z,1.70
2022-11-16T15:15:33.707Z,2.10
2022-11-16T15:20:38.070Z,3.60
2022-11-16T15:25:55.454Z,1.77
2022-11-16T15:30:58.219Z,3.25
2022-11-16T15:35:59.871Z,4.15
2022-11-16T15:41:04.269Z,5.68
2022-11-16T15:46:07.544Z,2.28
2022-11-16T15:51:19.935Z,1.05
2022-11-16T15:56:32.350Z,1.90
2022-11-16T16:01:44.364Z,1.90
2022-11-16T16:06:57.331Z,2.17
2022-11-16T16:12:31.477Z,2.20
2022-11-16T16:17:33.121Z,8.70
2022-11-16T16:22:36.921Z,8.10
2022-11-16T16:27:40.033Z,6.32
2022-11-16T16:32:41.947Z,10.35
2022-11-16T16:37:44.038Z,13.95
2022-11-16T16:42:49.332Z,10.30
2022-11-16T16:47:51.489Z,11.88
2022-11-16T16:52:53.172Z,12.05
2022-11-16T16:57:57.461Z,11.80
2022-11-16T17:02:59.126Z,10.52
2022-11-16T17:08:01.176Z,10.30
2022-11-16T17:13:03.167Z,10.98
2022-11-16T17:18:05.414Z,8.32
2022-11-16T17:23:07.477Z,16.23
2022-11-16T17:28:09.183Z,13.40
2022-11-16T17:33:11.301Z,11.30
2022-11-16T17:38:13.358Z,8.30
2022-11-16T17:43:14.989Z,10.73
2022-11-16T17:48:17.176Z,9.80
2022-11-16T17:53:18.849Z,3.80
2022-11-16T17:58:21.292Z,3.38
2022-11-16T18:03:24.220Z,2.30
2022-11-16T18:08:26.378Z,2.50
2022-11-16T18:13:28.041Z,9.32
2022-11-16T18:18:29.817Z,9.10
2022-11-16T18:23:34.095Z,5.63
2022-11-16T18:28:36.301Z,4.82
2022-11-16T18:33:38.952Z,5.85
2022-11-16T18:38:40.861Z,11.27
2022-11-16T18:43:51.958Z,12.13
2022-11-16T18:48:53.999Z,9.25
2022-11-16T18:53:56.139Z,12.48
2022-11-16T18:58:58.498Z,17.38
2022-11-16T19:04:00.769Z,20.33
2022-11-16T19:09:04.395Z,19.02
2022-11-16T19:14:07.705Z,7.93
2022-11-16T19:19:09.573Z,12.98
2022-11-16T19:24:11.484Z,23.15
2022-11-16T19:29:13.176Z,18.63
2022-11-16T19:34:15.004Z,9.65
2022-11-16T19:39:17.205Z,11.90
2022-11-16T19:44:18.891Z,14.80
2022-11-16T19:49:21.810Z,12.57
2022-11-16T19:54:23.949Z,17.63
2022-11-16T19:59:25.654Z,30.60
2022-11-16T20:04:32.739Z,18.02
2022-11-16T20:09:34.978Z,15.52
2022-11-16T20:14:37.264Z,10.30
2022-11-16T20:19:39.004Z,6.53
2022-11-16T20:24:40.632Z,9.48
2022-11-16T20:29:42.311Z,8.88
2022-11-16T20:34:44.006Z,8.68
2022-11-16T20:39:47.084Z,6.43
2022-11-16T20:44:48.762Z,5.72
2022-11-16T20:49:50.397Z,21.23
2022-11-16T20:54:52.442Z,19.42
2022-11-16T20:59:54.138Z,20.33
2022-11-16T21:05:00.083Z,15.40
2022-11-16T21:10:20.552Z,18.15
2022-11-16T21:15:22.349Z,17.17
2022-11-16T21:20:28.527Z,17.42
2022-11-16T21:25:30.416Z,10.98
2022-11-16T21:30:32.459Z,10.75
2022-11-16T21:35:34.525Z,11.57
2022-11-16T21:40:36.265Z,7.38
2022-11-16T21:45:37.979Z,4.90
2022-11-16T21:50:40.080Z,4.20
2022-11-16T21:55:49.568Z,4.60
2022-11-16T22:00:55.410Z,4.45
2022-11-16T22:06:17.679Z,6.55
2022-11-16T22:16:24.160Z,6.88
2022-11-16T22:21:25.881Z,6.35
2022-11-16T22:26:27.599Z,4.45
2022-11-16T22:31:29.329Z,4.82
2022-11-16T22:36:31.039Z,8.50
2022-11-16T22:41:32.772Z,7.45
2022-11-16T22:46:34.484Z,7.88
2022-11-16T22:51:36.238Z,7.28
2022-11-16T22:56:38.949Z,6.20
2022-11-16T23:01:40.697Z,4.93
2022-11-16T23:06:42.403Z,4.18
2022-11-16T23:12:02.914Z,3.97
2022-11-16T23:17:05.609Z,5.22
2022-11-16T23:22:30.400Z,4.82
2022-11-16T23:27:50.434Z,6.53
2022-11-16T23:32:52.444Z,5.15
2022-11-16T23:37:58.325Z,4.75
2022-11-16T23:43:19.422Z,4.22
2022-11-16T23:48:21.158Z,5.28
2022-11-16T23:53:22.904Z,4.55
2022-11-16T23:58:24.968Z,4.85
